createdAt,value
2022-12-24T00:00:29.849Z,57371.73
2022-12-24T00:03:00.697Z,57410.92
2022-12-24T00:05:31.165Z,57399.27
2022-12-24T00:08:01.711Z,57410.92
2022-12-24T00:10:32.780Z,57398.21
2022-12-24T00:13:03.189Z,57410.92
2022-12-24T00:15:33.491Z,57410.92
2022-12-24T00:18:03.810Z,57426.80
2022-12-24T00:20:34.645Z,57391.86
2022-12-24T00:23:05.003Z,57391.86
2022-12-24T00:25:36.355Z,57395.03
2022-12-24T00:28:13.832Z,57403.51
2022-12-24T00:30:44.614Z,57388.68
2022-12-24T00:33:19.440Z,57407.74
2022-12-24T00:35:51.774Z,57390.80
2022-12-24T00:38:25.255Z,57390.80
2022-12-24T00:41:07.998Z,57398.21
2022-12-24T00:43:42.580Z,57388.68
2022-12-24T00:46:16.029Z,57401.39
2022-12-24T00:48:46.455Z,57431.04
2022-12-24T00:51:17.315Z,57415.16
2022-12-24T00:53:48.185Z,57396.09
2022-12-24T00:56:22.958Z,57384.44
2022-12-24T00:58:55.272Z,57414.10
2022-12-24T01:01:26.009Z,57384.44
2022-12-24T01:03:56.558Z,57399.27
2022-12-24T01:06:30.567Z,57414.10
2022-12-24T01:09:03.735Z,57414.10
2022-12-24T01:11:36.988Z,57410.92
2022-12-24T01:14:12.829Z,57392.91
2022-12-24T01:16:47.956Z,57402.45
2022-12-24T01:19:18.417Z,57413.04
2022-12-24T01:21:48.728Z,57401.39
2022-12-24T01:24:19.103Z,57418.33
2022-12-24T01:26:49.508Z,57382.32
2022-12-24T01:29:19.896Z,57410.92
2022-12-24T01:31:50.429Z,57393.98
2022-12-24T01:34:20.736Z,57405.62
2022-12-24T01:36:51.188Z,57407.74
2022-12-24T01:39:21.577Z,57410.92
2022-12-24T01:41:52.168Z,57426.80
2022-12-24T01:44:36.130Z,57426.80
2022-12-24T01:47:33.352Z,57398.21
2022-12-24T01:50:06.644Z,57420.45
2022-12-24T01:52:37.613Z,57423.63
2022-12-24T01:55:13.545Z,57404.57
2022-12-24T01:57:52.435Z,57404.57
2022-12-24T02:00:23.176Z,57405.62
2022-12-24T02:02:55.481Z,57401.39
2022-12-24T02:05:34.559Z,57422.57
2022-12-24T02:08:05.644Z,57421.51
2022-12-24T02:10:36.564Z,57435.28
2022-12-24T02:13:07.722Z,57403.51
2022-12-24T02:15:46.922Z,57422.57
2022-12-24T02:18:22.972Z,57401.39
2022-12-24T02:21:08.560Z,57401.39
2022-12-24T02:24:04.324Z,57401.39
2022-12-24T02:26:46.311Z,57420.45
2022-12-24T02:29:34.190Z,57424.69
2022-12-24T02:32:13.150Z,57419.39
2022-12-24T02:34:58.396Z,57419.39
2022-12-24T02:37:43.369Z,57395.03
2022-12-24T02:40:19.701Z,57414.10
2022-12-24T02:42:53.105Z,57426.80
2022-12-24T02:45:26.323Z,57409.86
2022-12-24T02:47:57.873Z,57427.87
2022-12-24T02:50:28.794Z,57427.87
2022-12-24T02:52:59.138Z,57421.51
2022-12-24T02:55:41.541Z,57390.80
2022-12-24T02:58:26.619Z,57432.10
2022-12-24T03:01:00.068Z,57411.98
2022-12-24T03:03:38.918Z,57400.33
2022-12-24T03:06:28.764Z,57403.51
2022-12-24T03:11:48.007Z,57422.57
2022-12-24T03:14:19.142Z,57414.10
2022-12-24T03:16:50.607Z,57432.10
2022-12-24T03:19:22.250Z,57393.98
2022-12-24T03:21:54.892Z,57413.04
2022-12-24T03:24:25.712Z,57408.80
2022-12-24T03:26:56.812Z,57419.39
2022-12-24T03:29:27.689Z,57419.39
2022-12-24T03:32:00.913Z,57406.68
2022-12-24T03:34:32.514Z,57416.21
2022-12-24T03:37:02.810Z,57408.80
2022-12-24T03:39:33.730Z,57402.45
2022-12-24T03:42:04.201Z,57402.45
2022-12-24T03:44:34.894Z,57413.04
2022-12-24T03:47:05.218Z,57426.80
2022-12-24T03:49:35.496Z,57426.80
2022-12-24T03:52:06.005Z,57410.92
2022-12-24T03:54:36.601Z,57431.04
2022-12-24T03:57:07.189Z,57423.63
2022-12-24T03:59:37.356Z,57417.27
2022-12-24T04:02:07.977Z,57411.98
2022-12-24T04:04:38.617Z,57411.98
2022-12-24T04:07:08.987Z,57434.22
2022-12-24T04:09:40.503Z,57396.09
2022-12-24T04:12:10.915Z,57435.28
2022-12-24T04:14:41.465Z,57415.16
2022-12-24T04:17:11.941Z,57390.80
2022-12-24T04:19:42.981Z,57441.63
2022-12-24T04:22:13.279Z,57441.63
2022-12-24T04:24:43.721Z,57413.04
2022-12-24T04:27:33.220Z,57391.86
2022-12-24T04:30:03.831Z,57405.62
2022-12-24T04:32:35.130Z,57425.75
2022-12-24T04:35:05.630Z,57409.86
2022-12-24T04:37:36.492Z,57402.45
2022-12-24T04:40:07.959Z,57420.45
2022-12-24T04:42:38.527Z,57420.45
2022-12-24T04:45:09.561Z,57419.39
2022-12-24T04:47:40.333Z,57392.91
2022-12-24T04:50:11.253Z,57401.39
2022-12-24T04:52:41.741Z,57413.04
2022-12-24T04:55:12.050Z,57416.21
2022-12-24T04:57:42.346Z,57390.80
2022-12-24T05:00:13.514Z,57400.33
2022-12-24T05:02:43.999Z,57424.69
2022-12-24T05:05:14.940Z,57409.86
2022-12-24T05:07:45.609Z,57397.15
2022-12-24T05:10:16.069Z,57391.86
2022-12-24T05:12:50.039Z,57407.74
2022-12-24T05:15:20.925Z,57410.92
2022-12-24T05:17:51.675Z,57393.98
2022-12-24T05:20:22.099Z,57417.27
2022-12-24T05:22:55.595Z,57403.51
2022-12-24T05:25:28.340Z,57418.33
2022-12-24T05:27:58.750Z,57418.33
2022-12-24T05:30:30.567Z,57414.10
2022-12-24T05:33:01.171Z,57389.74
2022-12-24T05:35:31.677Z,57409.86
2022-12-24T05:38:02.071Z,57451.16
2022-12-24T05:40:32.450Z,57451.16
2022-12-24T05:43:02.687Z,57414.10
2022-12-24T05:45:33.187Z,57397.15
2022-12-24T05:48:04.062Z,57397.15
2022-12-24T05:50:35.150Z,57404.57
2022-12-24T05:53:05.514Z,57431.04
2022-12-24T05:55:35.980Z,57400.33
2022-12-24T05:58:08.871Z,57422.57
2022-12-24T06:00:39.366Z,57461.76
2022-12-24T06:03:10.278Z,57461.76
2022-12-24T06:05:40.578Z,57419.39
2022-12-24T06:08:10.933Z,57431.04
2022-12-24T06:10:41.269Z,57431.04
2022-12-24T06:13:11.662Z,57418.33
2022-12-24T06:15:41.902Z,57418.33
2022-12-24T06:18:12.083Z,57410.92
2022-12-24T06:20:42.541Z,57410.92
2022-12-24T06:23:12.774Z,57443.75
2022-12-24T06:25:43.227Z,57405.62
2022-12-24T06:28:14.131Z,57405.62
2022-12-24T06:30:49.305Z,57399.27
2022-12-24T06:33:20.094Z,57407.74
2022-12-24T06:35:50.595Z,57419.39
2022-12-24T06:38:21.200Z,57419.39
2022-12-24T06:40:52.421Z,57422.57
2022-12-24T06:43:26.974Z,57422.57
2022-12-24T06:46:00.180Z,57409.86
2022-12-24T06:48:31.804Z,57446.93
2022-12-24T06:51:05.685Z,57446.93
2022-12-24T06:53:36.094Z,57414.10
2022-12-24T06:56:09.697Z,57452.23
2022-12-24T06:58:41.440Z,57427.87
2022-12-24T07:01:14.304Z,57409.86
2022-12-24T07:03:45.070Z,57409.86
2022-12-24T07:06:27.082Z,57398.21
2022-12-24T07:08:57.574Z,57438.46
2022-12-24T07:11:28.470Z,57402.45
2022-12-24T07:14:01.590Z,57414.10
2022-12-24T07:16:32.187Z,57414.10
2022-12-24T07:19:02.588Z,57403.51
2022-12-24T07:21:34.587Z,57393.98
2022-12-24T07:24:06.558Z,57393.98
2022-12-24T07:26:37.786Z,57422.57
2022-12-24T07:29:08.951Z,57402.45
2022-12-24T07:31:39.702Z,57423.63
2022-12-24T07:34:09.977Z,57423.63
2022-12-24T07:36:44.158Z,57425.75
2022-12-24T07:39:14.617Z,57426.80
2022-12-24T07:41:45.029Z,57414.10
2022-12-24T07:44:20.367Z,57434.22
2022-12-24T07:46:56.191Z,57405.62
2022-12-24T07:52:22.279Z,57413.04
2022-12-24T07:54:52.914Z,57419.39
2022-12-24T07:57:25.683Z,57415.16
2022-12-24T07:59:55.960Z,57426.80
2022-12-24T08:02:26.507Z,57433.16
2022-12-24T08:04:57.557Z,57433.16
2022-12-24T08:07:28.145Z,57425.75
2022-12-24T08:09:58.592Z,57425.75
2022-12-24T08:12:29.032Z,57395.03
2022-12-24T08:14:59.931Z,57420.45
2022-12-24T08:17:32.494Z,57400.33
2022-12-24T08:20:02.959Z,57410.92
2022-12-24T08:22:33.571Z,57398.21
2022-12-24T08:25:04.695Z,57398.21
2022-12-24T08:27:35.492Z,57397.15
2022-12-24T08:30:12.692Z,57414.10
2022-12-24T08:32:46.072Z,57414.10
2022-12-24T08:35:17.812Z,57405.62
2022-12-24T08:37:48.172Z,57400.33
2022-12-24T08:40:18.652Z,57424.69
2022-12-24T08:42:49.342Z,57441.63
2022-12-24T08:45:20.010Z,57393.98
2022-12-24T08:47:50.390Z,57423.63
2022-12-24T08:50:20.906Z,57423.63
2022-12-24T08:52:51.534Z,57392.91
2022-12-24T08:55:22.677Z,57392.91
2022-12-24T08:57:53.184Z,57407.74
2022-12-24T09:00:24.431Z,57388.68
2022-12-24T09:02:56.251Z,57390.80
2022-12-24T09:05:46.403Z,57390.80
2022-12-24T09:08:17.299Z,57399.27
2022-12-24T09:10:49.221Z,57386.56
2022-12-24T09:13:19.871Z,57406.68
2022-12-24T09:15:56.551Z,57398.21
2022-12-24T09:18:26.986Z,57388.68
2022-12-24T09:21:09.459Z,57419.39
2022-12-24T09:23:40.423Z,57402.45
2022-12-24T09:26:16.812Z,57384.44
2022-12-24T09:28:47.715Z,57420.45
2022-12-24T09:31:19.240Z,57418.33
2022-12-24T09:33:51.320Z,57390.80
2022-12-24T09:36:22.192Z,57395.03
2022-12-24T09:38:52.513Z,57405.62
2022-12-24T09:41:28.642Z,57379.15
2022-12-24T09:44:32.412Z,57393.98
2022-12-24T09:47:10.235Z,57407.74
2022-12-24T09:49:43.605Z,57398.21
2022-12-24T09:52:17.234Z,57404.57
2022-12-24T09:54:51.008Z,57401.39
2022-12-24T09:57:41.949Z,57407.74
2022-12-24T10:00:21.235Z,57421.51
2022-12-24T10:02:52.459Z,57439.52
2022-12-24T10:05:42.373Z,57392.91
2022-12-24T10:08:39.564Z,57392.91
2022-12-24T10:11:19.182Z,57408.80
2022-12-24T10:14:07.116Z,57406.68
2022-12-24T10:16:41.138Z,57406.68
2022-12-24T10:19:20.388Z,57408.80
2022-12-24T10:21:56.178Z,57386.56
2022-12-24T10:24:35.154Z,57397.15
2022-12-24T10:27:08.588Z,57400.33
2022-12-24T10:29:41.913Z,57410.92
2022-12-24T10:32:23.912Z,57403.51
2022-12-24T10:35:00.207Z,57395.03
2022-12-24T10:37:31.058Z,57410.92
2022-12-24T10:40:03.025Z,57405.62
2022-12-24T10:42:50.695Z,57400.33
2022-12-24T10:45:18.815Z,57418.33
2022-12-24T10:47:52.167Z,57411.98
2022-12-24T10:50:46.896Z,57427.87
2022-12-24T10:53:40.828Z,57427.87
2022-12-24T10:56:14.284Z,57405.62
2022-12-24T10:58:53.209Z,57405.62
2022-12-24T11:01:47.304Z,57403.51
2022-12-24T11:04:21.512Z,57403.51
2022-12-24T11:06:56.718Z,57411.98
2022-12-24T11:09:39.177Z,57400.33
2022-12-24T11:12:21.406Z,57417.27
2022-12-24T11:18:07.468Z,57405.62
2022-12-24T11:20:38.022Z,57391.86
2022-12-24T11:23:11.731Z,57415.16
2022-12-24T11:25:44.324Z,57385.50
2022-12-24T11:28:23.340Z,57385.50
2022-12-24T11:31:06.026Z,57421.51
2022-12-24T11:33:48.658Z,57380.21
2022-12-24T11:36:24.666Z,57406.68
2022-12-24T11:38:57.664Z,57406.68
2022-12-24T11:41:31.302Z,57380.21
2022-12-24T11:44:03.454Z,57395.03
2022-12-24T11:46:42.590Z,57395.03
2022-12-24T11:49:33.570Z,57380.21
2022-12-24T11:52:12.639Z,57380.21
2022-12-24T11:54:46.497Z,57390.80
2022-12-24T11:57:20.266Z,57390.80
2022-12-24T11:59:51.545Z,57377.03
2022-12-24T12:02:30.878Z,57381.27
2022-12-24T12:05:07.030Z,57396.09
2022-12-24T12:07:39.039Z,57407.74
2022-12-24T12:10:21.270Z,57396.09
2022-12-24T12:13:11.117Z,57417.27
2022-12-24T12:15:44.577Z,57398.21
2022-12-24T12:18:23.019Z,57401.39
2022-12-24T12:20:56.765Z,57414.10
2022-12-24T12:23:35.676Z,57410.92
2022-12-24T12:26:08.873Z,57405.62
2022-12-24T12:31:52.263Z,57402.45
2022-12-24T12:34:43.452Z,57398.21
2022-12-24T12:37:17.011Z,57423.63
2022-12-24T12:39:47.489Z,57423.63
2022-12-24T12:42:20.745Z,57413.04
2022-12-24T12:48:20.633Z,57414.10
2022-12-24T12:51:03.648Z,57413.04
2022-12-24T12:53:45.755Z,57413.04
2022-12-24T12:56:24.594Z,57417.27
2022-12-24T12:58:57.897Z,57395.03
2022-12-24T13:01:54.888Z,57411.98
2022-12-24T13:04:28.433Z,57407.74
2022-12-24T13:07:03.621Z,57414.10
2022-12-24T13:09:48.873Z,57418.33
2022-12-24T17:17:38.298Z,58210.62
2022-12-24T17:20:16.704Z,57948.98
2022-12-24T17:22:45.716Z,57820.81
2022-12-24T17:25:18.840Z,57729.72
2022-12-24T17:27:49.323Z,57647.10
2022-12-24T17:30:19.848Z,57633.34
2022-12-24T17:32:50.538Z,57579.32
2022-12-24T17:35:32.712Z,57561.31
2022-12-24T17:38:04.434Z,57561.31
2022-12-24T17:40:35.646Z,57576.14
2022-12-24T17:43:06.010Z,57607.91
2022-12-24T17:45:39.175Z,57616.39
2022-12-24T17:48:11.020Z,57566.61
2022-12-24T17:50:46.581Z,57551.78
2022-12-24T17:53:25.692Z,57551.78
2022-12-24T17:55:56.063Z,57530.60
2022-12-24T17:58:28.381Z,57575.08
2022-12-24T18:01:00.589Z,57584.61
2022-12-24T18:03:31.592Z,57554.96
2022-12-24T18:06:06.840Z,57602.62
2022-12-24T18:08:39.203Z,57572.96
2022-12-24T18:11:26.764Z,57633.34
2022-12-24T18:13:59.522Z,57655.58
2022-12-24T18:16:36.576Z,57655.58
2022-12-24T18:19:08.897Z,57603.68
2022-12-24T18:21:40.459Z,57545.43
2022-12-24T18:24:13.987Z,57500.94
2022-12-24T18:26:47.437Z,57500.94
2022-12-24T18:29:22.331Z,57469.17
2022-12-24T18:31:55.297Z,57500.94
2022-12-24T18:34:27.883Z,57496.71
2022-12-24T18:37:04.074Z,57463.87
2022-12-24T18:39:35.606Z,57494.59
2022-12-24T18:42:06.051Z,57494.59
2022-12-24T18:44:38.310Z,57490.35
2022-12-24T18:47:09.240Z,57490.35
2022-12-24T18:49:41.322Z,57491.41
2022-12-24T18:52:22.432Z,57478.70
2022-12-24T18:54:50.146Z,57498.82
2022-12-24T18:57:26.494Z,57484.00
2022-12-24T18:59:57.791Z,57467.05
2022-12-24T19:02:30.160Z,57459.64
2022-12-24T19:05:13.389Z,57474.46
2022-12-24T19:07:44.491Z,57492.47
2022-12-24T19:10:19.764Z,57481.88
2022-12-24T19:12:56.326Z,57458.58
2022-12-24T19:15:32.266Z,57488.23
2022-12-24T19:17:59.257Z,57456.46
2022-12-24T19:20:32.696Z,57465.99
2022-12-24T19:23:52.006Z,57491.41
2022-12-24T19:26:02.412Z,57458.58
2022-12-24T19:28:36.944Z,57458.58
2022-12-24T19:33:56.436Z,57446.93
2022-12-24T19:36:29.366Z,57467.05
2022-12-24T19:39:07.613Z,57418.33
2022-12-24T19:41:41.323Z,57463.87
2022-12-24T19:44:11.927Z,57426.80
2022-12-24T19:46:42.448Z,57452.23
2022-12-24T19:49:13.561Z,57451.16
2022-12-24T19:51:47.217Z,57451.16
2022-12-24T19:54:20.090Z,57432.10
2022-12-24T19:56:53.215Z,57432.10
2022-12-24T19:59:29.728Z,57419.39
2022-12-24T20:02:03.494Z,57433.16
2022-12-24T20:04:35.769Z,57415.16
2022-12-24T20:07:11.540Z,57443.75
2022-12-24T20:09:40.077Z,57409.86
2022-12-24T20:12:10.528Z,57431.04
2022-12-24T20:14:53.572Z,57415.16
2022-12-24T20:17:25.282Z,57445.87
2022-12-24T20:19:55.712Z,57454.34
2022-12-24T20:22:26.323Z,57443.75
2022-12-24T20:24:56.850Z,57408.80
2022-12-24T20:27:27.942Z,57408.80
2022-12-24T20:30:00.184Z,57436.34
2022-12-24T20:32:32.779Z,57441.63
2022-12-24T20:35:08.698Z,57440.57
2022-12-24T20:37:42.097Z,57431.04
2022-12-24T20:40:09.437Z,57418.33
2022-12-24T20:42:40.415Z,57432.10
2022-12-24T20:45:10.944Z,57441.63
2022-12-24T20:47:41.472Z,57427.87
2022-12-24T20:50:12.005Z,57444.81
2022-12-24T20:52:42.470Z,57444.81
2022-12-24T20:55:13.229Z,57401.39
2022-12-24T20:57:44.148Z,57432.10
2022-12-24T21:00:16.077Z,57429.98
2022-12-24T21:02:48.592Z,57411.98
2022-12-24T21:05:19.721Z,57422.57
2022-12-24T21:07:50.641Z,57406.68
2022-12-24T21:10:21.613Z,57411.98
2022-12-24T21:12:53.872Z,57403.51
2022-12-24T21:15:27.598Z,57414.10
2022-12-24T21:17:59.999Z,57426.80
2022-12-24T21:20:30.598Z,57403.51
2022-12-24T21:23:02.272Z,57415.16
2022-12-24T21:25:54.060Z,57416.21
2022-12-24T21:28:33.703Z,57410.92
2022-12-24T21:31:01.628Z,57397.15
2022-12-24T21:33:37.899Z,57397.15
2022-12-24T21:36:05.152Z,57433.16
2022-12-24T21:38:36.110Z,57401.39
2022-12-24T21:41:09.962Z,57421.51
2022-12-24T21:43:44.671Z,57410.92
2022-12-24T21:49:55.398Z,57406.68
2022-12-24T21:52:49.669Z,57384.44
2022-12-24T21:55:23.174Z,57406.68
2022-12-24T21:58:05.950Z,57406.68
2022-12-24T22:00:36.831Z,57409.86
2022-12-24T22:03:07.442Z,57397.15
2022-12-24T22:05:38.496Z,57424.69
2022-12-24T22:08:10.129Z,57399.27
2022-12-24T22:10:41.213Z,57421.51
2022-12-24T22:13:11.782Z,57409.86
2022-12-24T22:16:06.372Z,57398.21
2022-12-24T22:18:42.128Z,57423.63
2022-12-24T22:21:12.595Z,57423.63
2022-12-24T22:23:43.167Z,57401.39
2022-12-24T22:26:15.125Z,57407.74
2022-12-24T22:28:55.549Z,57429.98
2022-12-24T22:31:27.029Z,57404.57
2022-12-24T22:37:07.827Z,56668.58
2022-12-24T22:39:40.890Z,57428.92
2022-12-24T22:42:11.896Z,57391.86
2022-12-24T22:44:54.172Z,57392.91
2022-12-24T22:47:27.540Z,57386.56
2022-12-24T22:50:04.804Z,57397.15
2022-12-24T22:53:13.764Z,57419.39
2022-12-24T22:55:31.728Z,57406.68
2022-12-24T22:58:08.971Z,57420.45
2022-12-24T23:00:53.197Z,57403.51
2022-12-24T23:03:25.419Z,57417.27
2022-12-24T23:06:07.009Z,57408.80
2022-12-24T23:08:39.340Z,57408.80
2022-12-24T23:11:12.652Z,57425.75
2022-12-24T23:13:48.126Z,57416.21
2022-12-24T23:16:18.957Z,57395.03
2022-12-24T23:18:49.502Z,57400.33
2022-12-24T23:21:20.015Z,57400.33
2022-12-24T23:23:51.253Z,57426.80
2022-12-24T23:26:25.023Z,57447.99
2022-12-24T23:29:16.442Z,57388.68
2022-12-24T23:31:46.874Z,57433.16
2022-12-24T23:34:21.945Z,57433.16
2022-12-24T23:36:55.623Z,57415.16
2022-12-24T23:39:34.678Z,57418.33
2022-12-24T23:42:15.689Z,57418.33
2022-12-24T23:44:50.286Z,57418.33
2022-12-24T23:47:25.366Z,57418.33
2022-12-24T23:49:55.913Z,57426.80
2022-12-24T23:52:26.437Z,57426.80
2022-12-24T23:54:56.781Z,57403.51
2022-12-24T23:57:27.470Z,57413.04
2022-12-24T23:59:59.252Z,57413.04
